Main page
METAR-TAF:

METAR-TAF

Airports :

Gloucestershire Airport

Gloucester, England

latitude: 51-54N, longitude: 002-10W, elevation: 29 m

Current weather observation

The report was made 20 minutes ago, at 11:20 UTC
Wind 3 kt from the Southwest
Temperature 8°C
Humidity 66%
Pressure 1024 hPa
Visibility 10 km or more
no clouds below 1500 m and no cumulonimbus

METAR: EGBJ 081120Z 22003KT CAVOK 08/02 Q1024

Time: 11:40 (11:40 UTC)

Forecast

The report was made 41 minutes ago, at 10:59 UTC
Forecast valid from 08 at 12 UTC to 08 at 20 UTC
Wind 4 kt from the West/Southwest
Visibility 10 km or more
Few clouds at a height of 4500 ft

TAF: EGBJ 081059Z 0812/0820 24004KT 9999 FEW045

Weather observations and forecasts of more than 4000 airports (METAR and TAF reports).

The available stations are represented by yellow and red dots on the map.

Hover mouse over dot to see the name of the station.

Then click to see weather observations and forecasts.

To change the map : click on the green buttons with a black cross to zoom in, on the green button with a dash to zoom out, or on the green arrows for adjacent maps.


METAR-TAF: